createdAt,value
2023-05-28T00:01:49.569Z,3.60
2023-05-28T00:04:17.398Z,4.07
2023-05-28T00:06:44.081Z,3.95
2023-05-28T00:09:11.455Z,4.00
2023-05-28T00:11:39.775Z,4.38
2023-05-28T00:14:06.501Z,3.90
2023-05-28T00:16:36.539Z,4.03
2023-05-28T00:19:04.137Z,3.80
2023-05-28T00:21:36.406Z,4.40
2023-05-28T00:24:04.022Z,3.67
2023-05-28T00:26:33.288Z,4.10
2023-05-28T00:28:59.805Z,4.32
2023-05-28T00:31:30.297Z,3.92
2023-05-28T00:33:57.797Z,4.13
2023-05-28T00:36:24.350Z,4.20
2023-05-28T00:38:50.928Z,4.30
2023-05-28T00:41:26.018Z,4.15
2023-05-28T00:43:53.118Z,3.90
2023-05-28T00:46:23.262Z,4.40
2023-05-28T00:48:51.436Z,4.63
2023-05-28T00:53:45.311Z,4.10
2023-05-28T00:56:14.529Z,4.13
2023-05-28T00:58:44.601Z,4.60
2023-05-28T01:01:11.486Z,4.25
2023-05-28T01:03:39.659Z,4.10
2023-05-28T01:06:14.746Z,3.92
2023-05-28T01:08:44.472Z,4.20
2023-05-28T01:11:16.322Z,4.25
2023-05-28T01:13:49.600Z,3.80
2023-05-28T01:16:16.248Z,4.38
2023-05-28T01:18:45.753Z,3.92
2023-05-28T01:21:22.110Z,4.13
2023-05-28T01:23:50.561Z,3.70
2023-05-28T01:26:17.738Z,4.35
2023-05-28T01:28:50.151Z,4.30
2023-05-28T01:31:19.619Z,3.65
2023-05-28T01:33:46.999Z,4.15
2023-05-28T01:37:00.382Z,3.95
2023-05-28T01:39:30.385Z,3.90
2023-05-28T01:42:09.383Z,4.05
2023-05-28T01:44:36.585Z,4.97
2023-05-28T01:47:03.444Z,4.20
2023-05-28T01:49:30.446Z,4.30
2023-05-28T01:51:58.013Z,3.85
2023-05-28T01:54:26.838Z,4.35
2023-05-28T01:56:55.544Z,4.10
2023-05-28T01:59:23.823Z,3.70
2023-05-28T02:01:50.907Z,3.88
2023-05-28T02:04:17.757Z,3.90
2023-05-28T02:06:47.025Z,3.42
2023-05-28T02:09:13.755Z,4.03
2023-05-28T02:11:44.708Z,3.35
2023-05-28T02:14:15.392Z,3.28
2023-05-28T02:16:43.682Z,4.15
2023-05-28T02:19:13.857Z,3.50
2023-05-28T02:21:40.586Z,3.60
2023-05-28T02:24:07.378Z,3.83
2023-05-28T02:26:35.780Z,4.03
2023-05-28T02:29:02.826Z,3.70
2023-05-28T02:31:29.644Z,3.67
2023-05-28T02:33:58.495Z,3.47
2023-05-28T02:36:25.144Z,3.42
2023-05-28T02:38:51.658Z,3.65
2023-05-28T02:41:20.454Z,3.60
2023-05-28T02:43:48.893Z,3.15
2023-05-28T02:46:15.496Z,3.38
2023-05-28T02:48:43.867Z,4.00
2023-05-28T02:51:11.328Z,3.28
2023-05-28T02:53:38.023Z,3.33
2023-05-28T02:56:06.726Z,3.17
2023-05-28T02:58:33.481Z,3.13
2023-05-28T03:01:00.159Z,3.10
2023-05-28T03:03:39.539Z,3.10
2023-05-28T03:06:08.180Z,2.92
2023-05-28T03:08:35.119Z,3.20
2023-05-28T03:11:03.425Z,2.97
2023-05-28T03:13:29.979Z,3.28
2023-05-28T03:15:56.750Z,3.15
2023-05-28T03:18:29.747Z,2.88
2023-05-28T03:20:56.421Z,2.67
2023-05-28T03:23:22.940Z,2.80
2023-05-28T03:25:51.388Z,3.17
2023-05-28T03:28:18.150Z,3.40
2023-05-28T03:30:44.928Z,3.42
2023-05-28T03:33:13.355Z,3.20
2023-05-28T03:35:39.897Z,3.03
2023-05-28T03:38:06.450Z,3.00
2023-05-28T03:40:35.439Z,2.90
2023-05-28T03:43:02.233Z,2.60
2023-05-28T03:45:28.736Z,3.25
2023-05-28T03:47:55.506Z,3.22
2023-05-28T03:50:22.240Z,3.10
2023-05-28T03:52:48.764Z,3.10
2023-05-28T03:55:18.415Z,3.10
2023-05-28T03:57:45.030Z,2.85
2023-05-28T04:00:12.381Z,3.55
2023-05-28T04:02:40.827Z,3.13
2023-05-28T04:05:08.447Z,3.28
2023-05-28T04:07:35.190Z,3.05
2023-05-28T04:10:02.306Z,3.08
2023-05-28T04:12:28.821Z,2.88
2023-05-28T04:14:55.615Z,2.90
2023-05-28T04:17:24.286Z,3.00
2023-05-28T04:19:52.364Z,3.03
2023-05-28T04:22:18.942Z,3.20
2023-05-28T04:24:48.643Z,2.85
2023-05-28T04:27:19.097Z,2.75
2023-05-28T04:29:46.474Z,2.50
2023-05-28T04:32:13.252Z,2.60
2023-05-28T04:34:41.890Z,2.90
2023-05-28T04:37:09.055Z,2.58
2023-05-28T04:39:35.917Z,2.70
2023-05-28T04:42:04.515Z,2.80
2023-05-28T04:44:31.996Z,3.08
2023-05-28T04:47:01.789Z,2.60
2023-05-28T04:49:28.617Z,2.75
2023-05-28T04:51:55.154Z,2.50
2023-05-28T04:54:23.682Z,2.35
2023-05-28T04:56:50.412Z,2.60
2023-05-28T04:59:17.162Z,2.60
2023-05-28T05:01:43.971Z,2.67
2023-05-28T05:04:10.739Z,3.10
2023-05-28T05:06:37.372Z,3.17
2023-05-28T05:09:10.381Z,2.90
2023-05-28T05:11:36.978Z,2.95
2023-05-28T05:14:03.718Z,2.78
2023-05-28T05:16:30.881Z,2.70
2023-05-28T05:18:57.538Z,2.80
2023-05-28T05:21:26.152Z,3.35
2023-05-28T05:23:54.496Z,2.30
2023-05-28T05:26:22.441Z,3.03
2023-05-28T05:28:49.012Z,2.85
2023-05-28T05:31:20.207Z,2.80
2023-05-28T05:33:48.968Z,2.35
2023-05-28T05:36:15.557Z,2.85
2023-05-28T05:38:43.816Z,2.35
2023-05-28T05:41:11.580Z,2.47
2023-05-28T05:43:38.160Z,2.67
2023-05-28T05:46:11.292Z,2.58
2023-05-28T05:48:37.838Z,2.60
2023-05-28T05:51:04.595Z,2.75
2023-05-28T05:53:33.541Z,3.00
2023-05-28T05:56:01.804Z,2.83
2023-05-28T05:58:29.819Z,2.55
2023-05-28T06:00:56.742Z,3.00
2023-05-28T06:03:23.270Z,3.25
2023-05-28T06:05:51.170Z,2.60
2023-05-28T06:08:26.347Z,2.90
2023-05-28T06:10:52.910Z,2.92
2023-05-28T06:13:19.656Z,2.90
2023-05-28T06:15:46.662Z,3.28
2023-05-28T06:18:13.437Z,3.80
2023-05-28T06:20:40.556Z,3.30
2023-05-28T06:23:09.477Z,2.85
2023-05-28T06:25:36.429Z,3.10
2023-05-28T06:28:03.268Z,3.22
2023-05-28T06:30:32.253Z,3.20
2023-05-28T06:33:00.502Z,2.97
2023-05-28T06:35:28.984Z,3.90
2023-05-28T06:37:57.395Z,3.40
2023-05-28T06:40:24.163Z,3.00
2023-05-28T06:42:50.774Z,2.97
2023-05-28T06:45:18.925Z,3.05
2023-05-28T06:47:47.048Z,2.88
2023-05-28T06:50:13.830Z,3.00
2023-05-28T06:52:42.356Z,2.60
2023-05-28T06:55:09.793Z,3.78
2023-05-28T06:57:37.614Z,3.53
2023-05-28T07:00:12.109Z,3.33
2023-05-28T07:02:44.508Z,3.30
2023-05-28T07:05:18.031Z,2.53
2023-05-28T07:07:44.693Z,2.55
2023-05-28T07:10:12.481Z,2.67
2023-05-28T07:12:40.824Z,2.60
2023-05-28T07:15:08.181Z,2.42
2023-05-28T07:17:34.743Z,2.25
2023-05-28T07:20:03.251Z,2.08
2023-05-28T07:22:29.832Z,2.20
2023-05-28T07:27:58.049Z,2.60
2023-05-28T07:30:26.315Z,3.30
2023-05-28T07:32:52.995Z,2.95
2023-05-28T07:35:21.723Z,2.28
2023-05-28T07:37:48.306Z,2.08
2023-05-28T07:40:15.401Z,2.50
2023-05-28T07:42:51.581Z,2.10
2023-05-28T07:45:19.532Z,2.45
2023-05-28T07:47:46.484Z,2.70
2023-05-28T07:50:15.624Z,2.50
2023-05-28T07:52:42.491Z,2.90
2023-05-28T07:55:09.410Z,3.08
2023-05-28T07:57:36.246Z,3.00
2023-05-28T08:00:07.274Z,2.70
2023-05-28T08:02:36.354Z,2.70
2023-05-28T08:05:05.115Z,3.17
2023-05-28T08:07:32.764Z,2.90
2023-05-28T08:09:59.290Z,2.70
2023-05-28T08:12:26.088Z,2.63
2023-05-28T08:14:52.864Z,2.55
2023-05-28T08:17:22.083Z,2.70
2023-05-28T08:19:59.783Z,2.70
2023-05-28T08:22:28.044Z,3.00
2023-05-28T08:25:08.063Z,3.25
2023-05-28T08:27:37.022Z,3.42
2023-05-28T08:30:03.852Z,2.83
2023-05-28T08:32:31.759Z,3.30
2023-05-28T08:34:58.291Z,3.17
2023-05-28T08:37:24.873Z,3.47
2023-05-28T08:40:03.451Z,3.30
2023-05-28T08:42:35.221Z,3.20
2023-05-28T08:45:04.485Z,2.83
2023-05-28T08:47:36.377Z,3.42
2023-05-28T08:50:07.440Z,3.20
2023-05-28T08:52:35.175Z,3.40
2023-05-28T08:55:02.469Z,3.40
2023-05-28T08:57:30.693Z,3.40
2023-05-28T08:59:59.565Z,3.03
2023-05-28T09:02:32.635Z,3.40
2023-05-28T09:04:59.166Z,3.38
2023-05-28T09:07:27.478Z,3.45
2023-05-28T09:09:54.610Z,3.30
2023-05-28T09:12:22.655Z,3.42
2023-05-28T09:14:58.815Z,3.30
2023-05-28T09:17:38.781Z,3.00
2023-05-28T09:20:20.607Z,3.03
2023-05-28T09:22:58.720Z,3.67
2023-05-28T09:25:29.803Z,3.17
2023-05-28T09:27:57.892Z,3.25
2023-05-28T09:30:25.724Z,3.15
2023-05-28T09:33:05.539Z,3.30
2023-05-28T09:35:34.722Z,3.60
2023-05-28T09:38:10.362Z,3.10
2023-05-28T09:40:46.392Z,2.70
2023-05-28T09:43:13.837Z,2.85
2023-05-28T09:45:40.408Z,3.38
2023-05-28T09:48:06.973Z,2.65
2023-05-28T09:50:40.330Z,2.95
2023-05-28T09:53:08.848Z,2.80
2023-05-28T09:55:36.842Z,2.90
2023-05-28T09:58:07.507Z,2.80
2023-05-28T10:00:41.656Z,3.15
2023-05-28T10:03:27.366Z,2.80
2023-05-28T10:05:58.577Z,2.72
2023-05-28T10:08:26.169Z,3.13
2023-05-28T10:10:55.000Z,3.40
2023-05-28T10:13:24.458Z,2.88
2023-05-28T10:15:51.752Z,3.13
2023-05-28T10:18:24.845Z,3.35
2023-05-28T10:20:52.310Z,3.05
2023-05-28T10:23:21.958Z,2.90
2023-05-28T10:25:51.560Z,3.03
2023-05-28T10:28:21.326Z,3.08
2023-05-28T10:31:01.725Z,2.70
2023-05-28T10:33:28.879Z,2.80
2023-05-28T10:36:01.786Z,3.15
2023-05-28T10:38:31.780Z,3.00
2023-05-28T10:41:02.613Z,3.28
2023-05-28T10:43:43.282Z,3.10
2023-05-28T10:46:13.686Z,2.80
2023-05-28T10:49:13.779Z,2.95
2023-05-28T10:51:47.733Z,3.10
2023-05-28T10:54:25.731Z,3.17
2023-05-28T10:57:22.154Z,2.50
2023-05-28T11:00:08.165Z,2.30
2023-05-28T11:02:35.526Z,2.97
2023-05-28T11:05:08.987Z,2.83
2023-05-28T11:07:40.978Z,2.83
2023-05-28T11:10:14.123Z,2.90
2023-05-28T11:12:42.112Z,2.90
2023-05-28T11:15:10.774Z,3.17
2023-05-28T11:17:46.795Z,2.90
2023-05-28T11:20:20.093Z,2.90
2023-05-28T11:22:54.754Z,3.35
2023-05-28T11:25:23.335Z,2.83
2023-05-28T11:27:51.734Z,2.50
2023-05-28T11:30:20.367Z,3.10
2023-05-28T11:32:49.390Z,2.75
2023-05-28T11:35:17.345Z,2.65
2023-05-28T11:37:45.997Z,2.97
2023-05-28T11:40:14.987Z,3.40
2023-05-28T11:42:49.585Z,3.53
2023-05-28T11:45:16.825Z,3.22
2023-05-28T11:47:44.049Z,2.65
2023-05-28T11:50:15.893Z,2.67
2023-05-28T11:52:43.893Z,3.10
2023-05-28T11:55:11.824Z,3.20
2023-05-28T11:57:41.566Z,2.50
2023-05-28T12:00:13.353Z,2.78
2023-05-28T12:02:49.471Z,2.50
2023-05-28T12:05:18.274Z,3.15
2023-05-28T12:07:49.275Z,2.67
2023-05-28T12:10:25.324Z,3.22
2023-05-28T12:12:53.878Z,3.38
2023-05-28T12:15:26.157Z,3.20
2023-05-28T12:17:59.808Z,2.80
2023-05-28T12:20:26.386Z,2.70
2023-05-28T12:23:16.317Z,2.53
2023-05-28T12:25:50.741Z,2.83
2023-05-28T12:28:19.425Z,3.13
2023-05-28T12:30:52.206Z,2.75
2023-05-28T12:33:18.923Z,2.80
2023-05-28T12:35:45.713Z,2.83
2023-05-28T12:38:15.468Z,2.67
2023-05-28T12:40:42.444Z,2.85
2023-05-28T12:43:09.563Z,3.00
2023-05-28T12:45:36.372Z,3.20
2023-05-28T12:48:07.859Z,2.88
2023-05-28T12:50:34.559Z,2.40
2023-05-28T12:53:01.388Z,2.85
2023-05-28T12:55:27.955Z,2.80
2023-05-28T12:57:56.668Z,3.25
2023-05-28T13:00:25.343Z,2.80
2023-05-28T13:02:52.165Z,2.40
2023-05-28T13:05:21.009Z,2.80
2023-05-28T13:07:49.821Z,2.95
2023-05-28T13:10:16.420Z,2.70
2023-05-28T13:12:49.475Z,3.03
2023-05-28T13:15:16.293Z,2.50
2023-05-28T13:17:42.875Z,3.03
2023-05-28T13:20:12.196Z,2.67
2023-05-28T13:22:39.188Z,2.75
2023-05-28T13:25:08.848Z,2.63
2023-05-28T13:27:36.031Z,3.28
2023-05-28T13:30:06.846Z,2.65
2023-05-28T13:32:33.609Z,2.78
2023-05-28T13:35:12.039Z,3.13
2023-05-28T13:37:39.880Z,2.80
2023-05-28T13:40:11.675Z,3.38
2023-05-28T13:42:39.190Z,2.92
2023-05-28T13:45:08.708Z,2.40
2023-05-28T13:47:35.271Z,2.70
2023-05-28T13:50:03.704Z,2.95
2023-05-28T13:52:30.408Z,3.05
2023-05-28T13:54:56.984Z,3.03
2023-05-28T13:57:27.780Z,3.05
2023-05-28T13:59:54.299Z,2.78
2023-05-28T14:02:20.888Z,2.70
2023-05-28T14:04:47.600Z,2.85
2023-05-28T14:07:16.391Z,2.95
2023-05-28T14:09:43.111Z,2.80
2023-05-28T14:14:44.688Z,2.65
2023-05-28T14:17:11.291Z,2.70
2023-05-28T14:19:39.680Z,2.50
2023-05-28T14:22:06.210Z,2.70
2023-05-28T14:24:33.714Z,2.53
2023-05-28T14:27:02.273Z,2.72
2023-05-28T14:29:28.825Z,2.35
2023-05-28T14:31:55.473Z,3.25
2023-05-28T14:34:22.381Z,2.42
2023-05-28T14:36:49.236Z,2.92
2023-05-28T14:39:15.844Z,2.88
2023-05-28T14:41:42.506Z,2.80
2023-05-28T14:44:09.162Z,2.60
2023-05-28T14:46:35.814Z,2.75
2023-05-28T14:49:04.168Z,2.47
2023-05-28T14:51:31.627Z,2.67
2023-05-28T14:53:58.453Z,2.90
2023-05-28T14:56:25.328Z,2.70
2023-05-28T15:01:46.443Z,2.83
2023-05-28T15:04:13.287Z,2.78
2023-05-28T15:06:39.868Z,2.88
2023-05-28T15:09:10.916Z,2.40
2023-05-28T15:11:37.424Z,2.63
2023-05-28T15:14:03.947Z,2.60
2023-05-28T15:16:35.185Z,3.00
2023-05-28T15:19:01.732Z,2.47
2023-05-28T15:21:28.236Z,2.95
2023-05-28T15:23:55.094Z,2.80
2023-05-28T15:26:25.778Z,2.60
2023-05-28T15:28:52.382Z,2.67
2023-05-28T15:31:20.859Z,2.70
2023-05-28T15:33:47.491Z,2.60
2023-05-28T15:36:14.620Z,2.88
2023-05-28T15:38:41.525Z,2.92
2023-05-28T15:41:08.531Z,2.35
2023-05-28T15:43:35.165Z,2.63
2023-05-28T15:46:03.796Z,2.45
2023-05-28T15:48:30.699Z,2.65
2023-05-28T15:50:57.207Z,2.90
2023-05-28T15:53:27.225Z,2.40
2023-05-28T15:55:54.119Z,2.60
2023-05-28T15:58:25.700Z,3.05
2023-05-28T16:00:57.540Z,3.00
2023-05-28T16:03:26.758Z,2.15
2023-05-28T16:05:53.819Z,2.47
2023-05-28T16:08:20.882Z,2.50
2023-05-28T16:10:47.983Z,2.17
2023-05-28T16:13:15.392Z,2.45
2023-05-28T16:15:44.596Z,2.75
2023-05-28T16:18:12.780Z,2.38
2023-05-28T16:20:39.998Z,2.30
2023-05-28T16:23:08.710Z,2.50
2023-05-28T16:25:35.559Z,2.75
2023-05-28T16:28:02.380Z,2.53
2023-05-28T16:30:29.580Z,2.60
2023-05-28T16:33:07.894Z,2.95
2023-05-28T16:35:44.062Z,2.65
2023-05-28T16:38:10.977Z,2.50
2023-05-28T16:40:47.623Z,2.60
2023-05-28T16:43:14.575Z,2.70
2023-05-28T16:45:43.674Z,2.80
2023-05-28T16:48:11.881Z,2.80
2023-05-28T16:50:39.084Z,2.47
2023-05-28T16:53:13.565Z,2.25
2023-05-28T16:55:40.266Z,2.70
2023-05-28T16:58:09.156Z,2.63
2023-05-28T17:00:35.857Z,2.55
2023-05-28T17:03:02.443Z,2.83
2023-05-28T17:05:29.137Z,2.92
2023-05-28T17:07:55.857Z,2.42
2023-05-28T17:15:48.911Z,2.50
2023-05-28T17:18:16.792Z,2.50
2023-05-28T17:20:43.658Z,2.42
2023-05-28T17:23:10.329Z,2.33
2023-05-28T17:25:36.818Z,2.47
2023-05-28T17:28:05.133Z,2.35
2023-05-28T17:30:37.326Z,2.40
2023-05-28T17:33:04.101Z,2.40
2023-05-28T17:35:30.756Z,2.65
2023-05-28T17:37:57.342Z,2.70
2023-05-28T17:40:24.081Z,2.20
2023-05-28T17:43:02.030Z,2.90
2023-05-28T17:45:29.260Z,2.60
2023-05-28T17:47:55.819Z,2.90
2023-05-28T17:50:22.788Z,2.63
2023-05-28T17:52:49.309Z,3.03
2023-05-28T17:55:17.884Z,2.55
2023-05-28T17:57:52.630Z,2.70
2023-05-28T18:00:19.946Z,3.37
2023-05-28T18:02:46.812Z,2.60
2023-05-28T18:05:13.463Z,2.40
2023-05-28T18:07:44.509Z,2.58
2023-05-28T18:10:11.286Z,2.40
2023-05-28T18:12:38.429Z,2.88
2023-05-28T18:15:07.302Z,2.33
2023-05-28T18:17:33.949Z,2.53
2023-05-28T18:20:00.768Z,2.60
2023-05-28T18:22:38.257Z,2.28
2023-05-28T18:25:07.774Z,2.53
2023-05-28T18:27:34.369Z,2.80
2023-05-28T18:30:01.685Z,2.83
2023-05-28T18:32:28.529Z,2.55
2023-05-28T18:34:55.668Z,2.38
2023-05-28T18:37:24.475Z,2.28
2023-05-28T18:42:48.740Z,2.10
2023-05-28T18:45:15.550Z,2.33
2023-05-28T18:47:42.189Z,2.15
2023-05-28T18:50:09.148Z,2.58
2023-05-28T18:52:36.143Z,2.50
2023-05-28T18:55:02.681Z,2.58
2023-05-28T18:57:29.309Z,2.65
2023-05-28T18:59:56.777Z,2.50
2023-05-28T19:02:23.462Z,2.15
2023-05-28T19:04:57.876Z,2.10
2023-05-28T19:07:26.292Z,2.03
2023-05-28T19:09:54.070Z,2.70
2023-05-28T19:12:21.223Z,2.40
2023-05-28T19:14:51.043Z,2.60
2023-05-28T19:17:17.605Z,2.47
2023-05-28T19:19:47.394Z,2.05
2023-05-28T19:22:14.030Z,2.28
2023-05-28T19:24:43.330Z,1.90
2023-05-28T19:27:11.778Z,1.70
2023-05-28T19:29:38.292Z,2.47
2023-05-28T19:32:05.009Z,1.80
2023-05-28T19:34:34.980Z,1.80
2023-05-28T19:37:01.987Z,1.90
2023-05-28T19:39:28.506Z,1.70
2023-05-28T19:41:59.596Z,1.45
2023-05-28T19:44:28.959Z,1.70
2023-05-28T19:46:55.922Z,1.42
2023-05-28T19:49:22.506Z,1.98
2023-05-28T19:51:48.985Z,1.83
2023-05-28T19:54:16.198Z,2.30
2023-05-28T19:56:45.238Z,1.90
2023-05-28T19:59:12.953Z,1.98
2023-05-28T20:01:39.522Z,2.63
2023-05-28T20:04:11.343Z,2.42
2023-05-28T20:06:37.901Z,3.00
2023-05-28T20:09:04.594Z,2.55
2023-05-28T20:11:33.343Z,2.67
2023-05-28T20:14:01.600Z,3.15
2023-05-28T20:16:30.406Z,2.67
2023-05-28T20:18:58.406Z,3.13
2023-05-28T20:21:26.459Z,2.50
2023-05-28T20:23:53.427Z,3.75
2023-05-28T20:26:25.154Z,3.78
2023-05-28T20:28:51.900Z,3.45
2023-05-28T20:31:18.493Z,3.72
2023-05-28T20:33:48.095Z,3.72
2023-05-28T20:36:21.105Z,3.63
2023-05-28T20:38:47.675Z,3.83
2023-05-28T20:41:14.561Z,3.17
2023-05-28T20:43:42.885Z,3.90
2023-05-28T20:46:11.278Z,2.97
2023-05-28T20:48:39.796Z,3.22
2023-05-28T20:51:06.399Z,3.13
2023-05-28T20:53:32.963Z,3.05
2023-05-28T20:55:59.963Z,3.33
2023-05-28T20:58:33.976Z,3.20
2023-05-28T21:01:03.505Z,3.73
2023-05-28T21:03:30.176Z,3.90
2023-05-28T21:05:56.737Z,3.58
2023-05-28T21:08:30.929Z,3.67
2023-05-28T21:10:57.471Z,3.67
2023-05-28T21:13:24.012Z,3.95
2023-05-28T21:15:50.693Z,3.90
2023-05-28T21:18:17.224Z,3.80
2023-05-28T21:20:46.430Z,4.47
2023-05-28T21:23:13.305Z,4.03
2023-05-28T21:25:39.918Z,3.60
2023-05-28T21:28:06.971Z,4.25
2023-05-28T21:30:35.546Z,4.47
2023-05-28T21:33:04.106Z,3.92
2023-05-28T21:35:30.820Z,3.67
2023-05-28T21:37:57.478Z,3.40
2023-05-28T21:40:23.961Z,3.13
2023-05-28T21:42:51.812Z,3.17
2023-05-28T21:45:26.632Z,2.83
2023-05-28T21:47:53.492Z,2.75
2023-05-28T21:50:20.245Z,2.70
2023-05-28T21:52:49.377Z,2.30
2023-05-28T21:55:15.954Z,2.55
2023-05-28T21:57:43.309Z,2.90
2023-05-28T22:00:14.644Z,3.03
2023-05-28T22:02:42.038Z,2.88
2023-05-28T22:05:08.869Z,3.00
2023-05-28T22:07:39.819Z,3.15
2023-05-28T22:10:13.029Z,3.88
2023-05-28T22:12:40.310Z,4.07
2023-05-28T22:15:10.615Z,3.50
2023-05-28T22:17:37.690Z,3.42
2023-05-28T22:20:10.472Z,3.97
2023-05-28T22:22:42.277Z,3.15
2023-05-28T22:25:10.413Z,3.17
2023-05-28T22:27:38.285Z,3.20
2023-05-28T22:30:10.588Z,3.30
2023-05-28T22:32:37.376Z,2.95
2023-05-28T22:35:05.572Z,3.15
2023-05-28T22:37:32.341Z,2.80
2023-05-28T22:39:59.580Z,2.55
2023-05-28T22:42:26.664Z,2.70
2023-05-28T22:44:53.303Z,2.45
2023-05-28T22:47:20.578Z,2.50
2023-05-28T22:49:48.838Z,3.20
2023-05-28T22:52:17.254Z,3.53
2023-05-28T22:54:43.874Z,3.10
2023-05-28T22:57:10.467Z,2.97
2023-05-28T22:59:37.170Z,2.78
2023-05-28T23:02:07.604Z,3.10
2023-05-28T23:04:34.495Z,2.97
2023-05-28T23:07:03.716Z,3.10
2023-05-28T23:09:30.706Z,3.33
2023-05-28T23:11:59.217Z,3.20
2023-05-28T23:14:27.921Z,2.90
2023-05-28T23:16:54.663Z,2.95
2023-05-28T23:19:25.232Z,2.70
2023-05-28T23:21:58.476Z,2.75
2023-05-28T23:24:24.996Z,2.85
2023-05-28T23:26:52.522Z,2.70
2023-05-28T23:29:21.052Z,3.10
2023-05-28T23:31:48.888Z,3.42
2023-05-28T23:34:19.674Z,3.15
2023-05-28T23:36:50.529Z,2.95
2023-05-28T23:39:20.548Z,2.97
2023-05-28T23:41:47.122Z,3.17
2023-05-28T23:44:18.254Z,2.92
2023-05-28T23:46:45.129Z,2.58
2023-05-28T23:49:11.780Z,2.50
2023-05-28T23:51:40.502Z,2.58
2023-05-28T23:54:07.033Z,3.00
2023-05-28T23:56:39.837Z,2.67
2023-05-28T23:59:07.292Z,3.00
